Hattem, Netherlands
Current Conditions -  °F | °C
As of 6:25 PM on Tuesday 21 Oct 2014 (Local Time) from EHDL Reporting Station
Broken Clouds Broken Clouds  
Wind Chill: 50°   Ceiling: 5400
Heat Index: 50°   Visibility: 6mi
Dew Point: 46°   Wind: 10mph
Humidity: 87%   Direction: 270°W
Pressure: 29.53"   Gusts: NA
Location:  52.48°N, 6.06°E
Report Text: EHDL 211625Z AUTO 27009KT 9999 FEW026 BKN054 10/08 Q1000 BLU
Loading
Personal Weather Stations






























Interactive Weather Map
Tropical Storm Tracking
New forecast layout! Learn more

10-Day Weather Forecast

Advertisements
Track Severe Weather on mobile